sensor_id;sensor_type;location;lat;lon;timestamp;pressure;altitude;pressure_sealevel;temperature;humidity
9249;BME280;4660;41.768;26.198;2023-04-22T00:01:00;100660.69;;;13.13;100.00
9249;BME280;4660;41.768;26.198;2023-04-22T00:03:25;100655.16;;;13.15;100.00
9249;BME280;4660;41.768;26.198;2023-04-22T00:05:52;100666.38;;;13.28;100.00
9249;BME280;4660;41.768;26.198;2023-04-22T00:08:17;100672.44;;;13.22;100.00
9249;BME280;4660;41.768;26.198;2023-04-22T00:10:43;100664.94;;;13.16;100.00
9249;BME280;4660;41.768;26.198;2023-04-22T00:13:08;100654.09;;;13.08;100.00
9249;BME280;4660;41.768;26.198;2023-04-22T00:15:34;100666.63;;;13.17;100.00
9249;BME280;4660;41.768;26.198;2023-04-22T00:17:59;100642.97;;;13.11;100.00
9249;BME280;4660;41.768;26.198;2023-04-22T00:20:25;100640.50;;;13.00;100.00
9249;BME280;4660;41.768;26.198;2023-04-22T00:22:51;100641.44;;;13.08;100.00
9249;BME280;4660;41.768;26.198;2023-04-22T00:25:16;100627.34;;;12.97;100.00
9249;BME280;4660;41.768;26.198;2023-04-22T00:27:42;100649.03;;;13.13;100.00
9249;BME280;4660;41.768;26.198;2023-04-22T00:30:09;100646.72;;;13.18;100.00
9249;BME280;4660;41.768;26.198;2023-04-22T00:32:35;100650.44;;;13.17;100.00
9249;BME280;4660;41.768;26.198;2023-04-22T00:35:00;100645.81;;;13.09;100.00
9249;BME280;4660;41.768;26.198;2023-04-22T00:37:26;100649.34;;;12.84;100.00
9249;BME280;4660;41.768;26.198;2023-04-22T00:39:52;100656.41;;;12.59;100.00
9249;BME280;4660;41.768;26.198;2023-04-22T00:42:18;100661.59;;;12.52;100.00
9249;BME280;4660;41.768;26.198;2023-04-22T00:44:45;100666.75;;;12.46;100.00
9249;BME280;4660;41.768;26.198;2023-04-22T00:47:11;100670.22;;;12.38;100.00
9249;BME280;4660;41.768;26.198;2023-04-22T00:49:37;100648.25;;;12.15;100.00
9249;BME280;4660;41.768;26.198;2023-04-22T00:52:03;100676.00;;;12.07;100.00
9249;BME280;4660;41.768;26.198;2023-04-22T00:54:29;100675.75;;;12.01;100.00
9249;BME280;4660;41.768;26.198;2023-04-22T00:56:56;100654.53;;;11.78;100.00
9249;BME280;4660;41.768;26.198;2023-04-22T00:59:23;100655.03;;;11.64;100.00
9249;BME280;4660;41.768;26.198;2023-04-22T01:01:50;100668.88;;;11.89;100.00
9249;BME280;4660;41.768;26.198;2023-04-22T01:04:15;100673.34;;;11.98;100.00
9249;BME280;4660;41.768;26.198;2023-04-22T01:06:42;100666.59;;;12.11;100.00
9249;BME280;4660;41.768;26.198;2023-04-22T01:09:08;100655.63;;;12.13;100.00
9249;BME280;4660;41.768;26.198;2023-04-22T01:11:36;100650.19;;;12.23;100.00
9249;BME280;4660;41.768;26.198;2023-04-22T01:14:02;100655.03;;;12.19;100.00
9249;BME280;4660;41.768;26.198;2023-04-22T01:16:29;100643.09;;;12.22;100.00
9249;BME280;4660;41.768;26.198;2023-04-22T01:18:58;100645.16;;;12.10;100.00
9249;BME280;4660;41.768;26.198;2023-04-22T01:21:25;100661.88;;;11.96;100.00
9249;BME280;4660;41.768;26.198;2023-04-22T01:23:51;100661.56;;;11.99;100.00
9249;BME280;4660;41.768;26.198;2023-04-22T01:26:16;100658.84;;;11.99;100.00
9249;BME280;4660;41.768;26.198;2023-04-22T01:28:42;100640.69;;;12.01;100.00
9249;BME280;4660;41.768;26.198;2023-04-22T01:31:08;100654.66;;;12.32;100.00
9249;BME280;4660;41.768;26.198;2023-04-22T01:33:33;100651.50;;;12.36;100.00
9249;BME280;4660;41.768;26.198;2023-04-22T01:35:59;100653.03;;;12.21;100.00
9249;BME280;4660;41.768;26.198;2023-04-22T01:38:25;100643.56;;;12.17;100.00
9249;BME280;4660;41.768;26.198;2023-04-22T01:40:51;100651.66;;;12.17;100.00
9249;BME280;4660;41.768;26.198;2023-04-22T01:43:17;100648.94;;;12.17;100.00
9249;BME280;4660;41.768;26.198;2023-04-22T01:45:42;100652.25;;;12.11;100.00
9249;BME280;4660;41.768;26.198;2023-04-22T01:48:08;100646.84;;;12.11;100.00
9249;BME280;4660;41.768;26.198;2023-04-22T01:50:33;100645.84;;;11.94;100.00
9249;BME280;4660;41.768;26.198;2023-04-22T01:52:59;100640.22;;;12.05;100.00
9249;BME280;4660;41.768;26.198;2023-04-22T01:55:25;100645.16;;;12.10;100.00
9249;BME280;4660;41.768;26.198;2023-04-22T01:57:50;100643.84;;;12.14;100.00
9249;BME280;4660;41.768;26.198;2023-04-22T02:00:16;100646.25;;;12.17;100.00
9249;BME280;4660;41.768;26.198;2023-04-22T02:02:42;100637.47;;;12.15;100.00
9249;BME280;4660;41.768;26.198;2023-04-22T02:05:09;100648.19;;;12.25;100.00
9249;BME280;4660;41.768;26.198;2023-04-22T02:07:34;100637.31;;;12.17;100.00
9249;BME280;4660;41.768;26.198;2023-04-22T02:10:04;100656.03;;;12.00;100.00
9249;BME280;4660;41.768;26.198;2023-04-22T02:12:30;100635.16;;;12.02;100.00
9249;BME280;4660;41.768;26.198;2023-04-22T02:14:57;100649.41;;;11.95;100.00
9249;BME280;4660;41.768;26.198;2023-04-22T02:17:22;100618.03;;;11.94;100.00
9249;BME280;4660;41.768;26.198;2023-04-22T02:19:48;100638.09;;;12.09;100.00
9249;BME280;4660;41.768;26.198;2023-04-22T02:22:13;100650.31;;;12.21;100.00
9249;BME280;4660;41.768;26.198;2023-04-22T02:24:39;100644.47;;;12.26;100.00
9249;BME280;4660;41.768;26.198;2023-04-22T02:27:05;100644.25;;;12.19;100.00
9249;BME280;4660;41.768;26.198;2023-04-22T02:29:33;100646.31;;;12.25;100.00
9249;BME280;4660;41.768;26.198;2023-04-22T02:31:59;100611.25;;;11.90;100.00
9249;BME280;4660;41.768;26.198;2023-04-22T02:34:25;100630.88;;;11.82;100.00
9249;BME280;4660;41.768;26.198;2023-04-22T02:36:50;100638.28;;;11.70;100.00
9249;BME280;4660;41.768;26.198;2023-04-22T02:39:16;100630.19;;;11.98;100.00
9249;BME280;4660;41.768;26.198;2023-04-22T02:41:41;100632.13;;;12.05;100.00
9249;BME280;4660;41.768;26.198;2023-04-22T02:44:07;100627.91;;;12.03;100.00
9249;BME280;4660;41.768;26.198;2023-04-22T02:46:32;100632.97;;;12.06;100.00
9249;BME280;4660;41.768;26.198;2023-04-22T02:48:57;100640.06;;;12.07;100.00
9249;BME280;4660;41.768;26.198;2023-04-22T02:51:23;100638.00;;;12.01;100.00
9249;BME280;4660;41.768;26.198;2023-04-22T02:53:48;100641.66;;;11.82;100.00
9249;BME280;4660;41.768;26.198;2023-04-22T02:56:14;100652.00;;;11.87;100.00
9249;BME280;4660;41.768;26.198;2023-04-22T02:58:40;100638.66;;;11.85;100.00
9249;BME280;4660;41.768;26.198;2023-04-22T03:01:05;100647.47;;;12.05;100.00
9249;BME280;4660;41.768;26.198;2023-04-22T03:03:31;100653.09;;;12.11;100.00
9249;BME280;4660;41.768;26.198;2023-04-22T03:05:56;100631.59;;;12.02;100.00
9249;BME280;4660;41.768;26.198;2023-04-22T03:08:22;100651.84;;;12.06;100.00
9249;BME280;4660;41.768;26.198;2023-04-22T03:10:48;100667.19;;;12.05;100.00
9249;BME280;4660;41.768;26.198;2023-04-22T03:13:13;100664.31;;;11.89;100.00
9249;BME280;4660;41.768;26.198;2023-04-22T03:15:42;100658.41;;;11.76;100.00
9249;BME280;4660;41.768;26.198;2023-04-22T03:18:07;100643.59;;;11.90;100.00
9249;BME280;4660;41.768;26.198;2023-04-22T03:20:34;100659.47;;;11.93;100.00
9249;BME280;4660;41.768;26.198;2023-04-22T03:23:00;100636.59;;;11.69;100.00
9249;BME280;4660;41.768;26.198;2023-04-22T03:25:26;100651.13;;;11.58;100.00
9249;BME280;4660;41.768;26.198;2023-04-22T03:27:52;100645.16;;;11.55;100.00
9249;BME280;4660;41.768;26.198;2023-04-22T03:30:17;100632.78;;;11.35;100.00
9249;BME280;4660;41.768;26.198;2023-04-22T03:32:43;100652.16;;;11.48;100.00
9249;BME280;4660;41.768;26.198;2023-04-22T03:35:08;100654.66;;;11.32;100.00
9249;BME280;4660;41.768;26.198;2023-04-22T03:37:34;100661.31;;;11.27;100.00
9249;BME280;4660;41.768;26.198;2023-04-22T03:39:59;100666.53;;;11.39;100.00
9249;BME280;4660;41.768;26.198;2023-04-22T03:42:25;100668.94;;;11.32;100.00
9249;BME280;4660;41.768;26.198;2023-04-22T03:44:51;100672.81;;;11.29;100.00
9249;BME280;4660;41.768;26.198;2023-04-22T03:47:16;100676.50;;;11.19;100.00
9249;BME280;4660;41.768;26.198;2023-04-22T03:49:42;100684.16;;;11.23;100.00
9249;BME280;4660;41.768;26.198;2023-04-22T03:52:07;100683.47;;;11.12;100.00
9249;BME280;4660;41.768;26.198;2023-04-22T03:54:33;100675.66;;;11.18;100.00
9249;BME280;4660;41.768;26.198;2023-04-22T03:56:58;100694.66;;;11.17;100.00
9249;BME280;4660;41.768;26.198;2023-04-22T03:59:24;100684.78;;;11.08;100.00
9249;BME280;4660;41.768;26.198;2023-04-22T04:01:50;100693.22;;;11.22;100.00
9249;BME280;4660;41.768;26.198;2023-04-22T04:04:16;100683.50;;;11.02;100.00
9249;BME280;4660;41.768;26.198;2023-04-22T04:06:42;100686.34;;;11.00;100.00
9249;BME280;4660;41.768;26.198;2023-04-22T04:09:07;100680.53;;;10.95;100.00
9249;BME280;4660;41.768;26.198;2023-04-22T04:11:34;100690.72;;;10.92;100.00
9249;BME280;4660;41.768;26.198;2023-04-22T04:13:59;100704.63;;;10.97;100.00
9249;BME280;4660;41.768;26.198;2023-04-22T04:16:25;100709.56;;;10.92;100.00
9249;BME280;4660;41.768;26.198;2023-04-22T04:18:51;100704.34;;;10.71;100.00
9249;BME280;4660;41.768;26.198;2023-04-22T04:21:16;100701.38;;;10.74;100.00
9249;BME280;4660;41.768;26.198;2023-04-22T04:23:42;100705.50;;;10.68;100.00
9249;BME280;4660;41.768;26.198;2023-04-22T04:26:08;100719.09;;;10.67;100.00
9249;BME280;4660;41.768;26.198;2023-04-22T04:28:33;100707.34;;;10.68;100.00
9249;BME280;4660;41.768;26.198;2023-04-22T04:31:00;100698.84;;;10.72;100.00
9249;BME280;4660;41.768;26.198;2023-04-22T04:33:29;100703.63;;;10.88;100.00
9249;BME280;4660;41.768;26.198;2023-04-22T04:35:56;100738.41;;;11.38;100.00
9249;BME280;4660;41.768;26.198;2023-04-22T04:38:23;100741.44;;;11.63;100.00
9249;BME280;4660;41.768;26.198;2023-04-22T04:40:52;100749.31;;;11.83;100.00
9249;BME280;4660;41.768;26.198;2023-04-22T04:43:18;100750.88;;;11.76;100.00
9249;BME280;4660;41.768;26.198;2023-04-22T04:45:44;100744.59;;;11.95;100.00
9249;BME280;4660;41.768;26.198;2023-04-22T04:48:14;100744.03;;;12.19;100.00
9249;BME280;4660;41.768;26.198;2023-04-22T04:50:41;100753.44;;;11.88;100.00
9249;BME280;4660;41.768;26.198;2023-04-22T04:53:11;100759.72;;;11.69;100.00
9249;BME280;4660;41.768;26.198;2023-04-22T04:55:37;100754.63;;;12.03;100.00
9249;BME280;4660;41.768;26.198;2023-04-22T04:58:03;100755.66;;;11.92;100.00
9249;BME280;4660;41.768;26.198;2023-04-22T05:00:29;100760.22;;;11.92;100.00
9249;BME280;4660;41.768;26.198;2023-04-22T05:02:55;100736.94;;;11.91;100.00
9249;BME280;4660;41.768;26.198;2023-04-22T05:05:20;100747.72;;;11.91;100.00
9249;BME280;4660;41.768;26.198;2023-04-22T05:07:46;100749.63;;;11.71;100.00
9249;BME280;4660;41.768;26.198;2023-04-22T05:10:13;100756.75;;;11.62;100.00
9249;BME280;4660;41.768;26.198;2023-04-22T05:12:38;100735.44;;;11.32;100.00
9249;BME280;4660;41.768;26.198;2023-04-22T05:15:05;100754.53;;;11.48;100.00
9249;BME280;4660;41.768;26.198;2023-04-22T05:17:31;100750.72;;;11.78;100.00
9249;BME280;4660;41.768;26.198;2023-04-22T05:19:57;100730.91;;;11.69;100.00
9249;BME280;4660;41.768;26.198;2023-04-22T05:22:22;100736.53;;;11.85;100.00
9249;BME280;4660;41.768;26.198;2023-04-22T05:24:48;100752.72;;;11.76;100.00
9249;BME280;4660;41.768;26.198;2023-04-22T05:27:13;100735.59;;;11.67;100.00
9249;BME280;4660;41.768;26.198;2023-04-22T05:29:39;100748.47;;;11.83;100.00
9249;BME280;4660;41.768;26.198;2023-04-22T05:32:06;100752.78;;;12.03;100.00
9249;BME280;4660;41.768;26.198;2023-04-22T05:34:32;100727.84;;;11.92;100.00
9249;BME280;4660;41.768;26.198;2023-04-22T05:36:58;100753.81;;;12.20;100.00
9249;BME280;4660;41.768;26.198;2023-04-22T05:39:24;100764.31;;;11.96;100.00
9249;BME280;4660;41.768;26.198;2023-04-22T05:41:50;100729.13;;;11.60;100.00
9249;BME280;4660;41.768;26.198;2023-04-22T05:44:15;100760.44;;;12.08;100.00
9249;BME280;4660;41.768;26.198;2023-04-22T05:46:41;100763.06;;;11.90;100.00
9249;BME280;4660;41.768;26.198;2023-04-22T05:49:07;100750.88;;;11.76;100.00
9249;BME280;4660;41.768;26.198;2023-04-22T05:51:32;100751.53;;;11.98;100.00
9249;BME280;4660;41.768;26.198;2023-04-22T05:53:58;100756.84;;;12.17;100.00
9249;BME280;4660;41.768;26.198;2023-04-22T05:56:24;100767.31;;;12.20;100.00
9249;BME280;4660;41.768;26.198;2023-04-22T05:58:49;100770.81;;;12.48;100.00
9249;BME280;4660;41.768;26.198;2023-04-22T06:01:15;100764.09;;;12.34;100.00
9249;BME280;4660;41.768;26.198;2023-04-22T06:03:41;100774.75;;;12.36;100.00
9249;BME280;4660;41.768;26.198;2023-04-22T06:06:07;100781.34;;;12.24;100.00
9249;BME280;4660;41.768;26.198;2023-04-22T06:08:32;100781.94;;;12.18;100.00
9249;BME280;4660;41.768;26.198;2023-04-22T06:10:58;100773.69;;;12.19;100.00
9249;BME280;4660;41.768;26.198;2023-04-22T06:13:24;100773.16;;;12.61;100.00
9249;BME280;4660;41.768;26.198;2023-04-22T06:15:49;100779.41;;;12.61;100.00
9249;BME280;4660;41.768;26.198;2023-04-22T06:18:21;100757.56;;;12.90;100.00
9249;BME280;4660;41.768;26.198;2023-04-22T06:20:50;100771.22;;;13.25;100.00
9249;BME280;4660;41.768;26.198;2023-04-22T06:23:15;100771.69;;;13.20;100.00
9249;BME280;4660;41.768;26.198;2023-04-22T06:25:41;100766.63;;;13.43;100.00
9249;BME280;4660;41.768;26.198;2023-04-22T06:28:07;100784.03;;;13.66;100.00
9249;BME280;4660;41.768;26.198;2023-04-22T06:30:33;100775.38;;;13.63;100.00
9249;BME280;4660;41.768;26.198;2023-04-22T06:33:02;100784.47;;;13.88;100.00
9249;BME280;4660;41.768;26.198;2023-04-22T06:35:28;100794.00;;;14.00;100.00
9249;BME280;4660;41.768;26.198;2023-04-22T06:37:53;100792.59;;;14.22;100.00
9249;BME280;4660;41.768;26.198;2023-04-22T06:40:19;100764.19;;;14.34;100.00
9249;BME280;4660;41.768;26.198;2023-04-22T06:42:44;100785.31;;;14.73;100.00
9249;BME280;4660;41.768;26.198;2023-04-22T06:45:10;100767.88;;;14.83;100.00
9249;BME280;4660;41.768;26.198;2023-04-22T06:47:40;100780.59;;;14.91;100.00
9249;BME280;4660;41.768;26.198;2023-04-22T06:50:09;100788.41;;;15.10;100.00
9249;BME280;4660;41.768;26.198;2023-04-22T06:52:37;100789.75;;;15.23;100.00
9249;BME280;4660;41.768;26.198;2023-04-22T06:55:03;100790.78;;;15.30;100.00
9249;BME280;4660;41.768;26.198;2023-04-22T06:57:29;100790.41;;;15.41;100.00
9249;BME280;4660;41.768;26.198;2023-04-22T06:59:55;100783.31;;;15.40;100.00
9249;BME280;4660;41.768;26.198;2023-04-22T07:02:21;100786.34;;;15.45;100.00
9249;BME280;4660;41.768;26.198;2023-04-22T07:04:47;100776.84;;;15.41;100.00
9249;BME280;4660;41.768;26.198;2023-04-22T07:07:12;100796.19;;;15.38;100.00
9249;BME280;4660;41.768;26.198;2023-04-22T07:09:38;100779.94;;;15.22;100.00
9249;BME280;4660;41.768;26.198;2023-04-22T07:12:04;100785.34;;;15.13;100.00
9249;BME280;4660;41.768;26.198;2023-04-22T07:14:32;100786.38;;;15.29;100.00
9249;BME280;4660;41.768;26.198;2023-04-22T07:16:58;100795.19;;;15.23;100.00
9249;BME280;4660;41.768;26.198;2023-04-22T07:19:27;100787.03;;;15.39;100.00
9249;BME280;4660;41.768;26.198;2023-04-22T07:21:56;100786.00;;;15.48;100.00
9249;BME280;4660;41.768;26.198;2023-04-22T07:24:21;100806.31;;;15.77;100.00
9249;BME280;4660;41.768;26.198;2023-04-22T07:26:47;100793.56;;;15.85;100.00
9249;BME280;4660;41.768;26.198;2023-04-22T07:29:13;100814.25;;;16.03;100.00
9249;BME280;4660;41.768;26.198;2023-04-22T07:31:39;100813.56;;;15.92;100.00
9249;BME280;4660;41.768;26.198;2023-04-22T07:34:04;100812.56;;;16.02;100.00
9249;BME280;4660;41.768;26.198;2023-04-22T07:36:30;100809.00;;;16.01;100.00
9249;BME280;4660;41.768;26.198;2023-04-22T07:38:58;100805.06;;;16.04;100.00
9249;BME280;4660;41.768;26.198;2023-04-22T07:41:24;100796.78;;;15.97;100.00
9249;BME280;4660;41.768;26.198;2023-04-22T07:43:49;100795.72;;;16.06;100.00
9249;BME280;4660;41.768;26.198;2023-04-22T07:46:26;100758.38;;;15.69;100.00
9249;BME280;4660;41.768;26.198;2023-04-22T07:49:01;100794.56;;;15.92;100.00
9249;BME280;4660;41.768;26.198;2023-04-22T07:51:26;100814.75;;;16.45;100.00
9249;BME280;4660;41.768;26.198;2023-04-22T07:53:52;100795.94;;;16.75;100.00
9249;BME280;4660;41.768;26.198;2023-04-22T07:56:21;100812.50;;;17.11;100.00
9249;BME280;4660;41.768;26.198;2023-04-22T07:58:47;100803.44;;;17.19;100.00
9249;BME280;4660;41.768;26.198;2023-04-22T08:01:12;100796.75;;;17.21;100.00
9249;BME280;4660;41.768;26.198;2023-04-22T08:03:38;100799.59;;;17.51;100.00
9249;BME280;4660;41.768;26.198;2023-04-22T08:06:03;100812.97;;;17.38;100.00
9249;BME280;4660;41.768;26.198;2023-04-22T08:08:29;100794.50;;;17.48;100.00
9249;BME280;4660;41.768;26.198;2023-04-22T08:10:55;100793.31;;;17.27;100.00
9249;BME280;4660;41.768;26.198;2023-04-22T08:13:20;100767.25;;;16.64;100.00
9249;BME280;4660;41.768;26.198;2023-04-22T08:15:46;100807.66;;;16.75;100.00
9249;BME280;4660;41.768;26.198;2023-04-22T08:18:14;100809.47;;;16.83;100.00
9249;BME280;4660;41.768;26.198;2023-04-22T08:20:40;100807.97;;;16.81;100.00
9249;BME280;4660;41.768;26.198;2023-04-22T08:23:08;100823.00;;;17.14;100.00
9249;BME280;4660;41.768;26.198;2023-04-22T08:25:34;100813.75;;;16.77;100.00
9249;BME280;4660;41.768;26.198;2023-04-22T08:27:59;100817.69;;;16.98;100.00
9249;BME280;4660;41.768;26.198;2023-04-22T08:30:27;100799.25;;;17.31;100.00
9249;BME280;4660;41.768;26.198;2023-04-22T08:32:53;100814.28;;;17.42;100.00
9249;BME280;4660;41.768;26.198;2023-04-22T08:35:18;100780.91;;;17.10;100.00
9249;BME280;4660;41.768;26.198;2023-04-22T08:37:44;100799.28;;;17.46;100.00
9249;BME280;4660;41.768;26.198;2023-04-22T08:40:10;100797.72;;;17.51;100.00
9249;BME280;4660;41.768;26.198;2023-04-22T08:42:38;100806.75;;;17.67;100.00
9249;BME280;4660;41.768;26.198;2023-04-22T08:45:05;100793.56;;;17.93;100.00
9249;BME280;4660;41.768;26.198;2023-04-22T08:47:31;100771.03;;;17.84;100.00
9249;BME280;4660;41.768;26.198;2023-04-22T08:50:03;100793.03;;;17.60;100.00
9249;BME280;4660;41.768;26.198;2023-04-22T08:52:30;100793.78;;;17.54;100.00
9249;BME280;4660;41.768;26.198;2023-04-22T08:54:56;100783.97;;;17.82;100.00
9249;BME280;4660;41.768;26.198;2023-04-22T08:57:22;100791.84;;;17.77;100.00
9249;BME280;4660;41.768;26.198;2023-04-22T08:59:49;100797.41;;;17.99;100.00
9249;BME280;4660;41.768;26.198;2023-04-22T09:02:19;100787.94;;;17.95;100.00
9249;BME280;4660;41.768;26.198;2023-04-22T09:04:49;100763.69;;;18.00;100.00
9249;BME280;4660;41.768;26.198;2023-04-22T09:07:22;100788.94;;;18.38;100.00
9249;BME280;4660;41.768;26.198;2023-04-22T09:09:52;100776.13;;;18.53;100.00
9249;BME280;4660;41.768;26.198;2023-04-22T09:12:21;100791.78;;;18.81;100.00
9249;BME280;4660;41.768;26.198;2023-04-22T09:14:47;100772.75;;;18.87;100.00
9249;BME280;4660;41.768;26.198;2023-04-22T09:17:33;100774.88;;;19.13;100.00
9249;BME280;4660;41.768;26.198;2023-04-22T09:20:05;100772.50;;;19.04;100.00
9249;BME280;4660;41.768;26.198;2023-04-22T09:22:42;100762.09;;;19.14;100.00
9249;BME280;4660;41.768;26.198;2023-04-22T09:25:18;100782.72;;;19.44;100.00
9249;BME280;4660;41.768;26.198;2023-04-22T09:28:10;100771.41;;;19.47;100.00
9249;BME280;4660;41.768;26.198;2023-04-22T09:30:36;100778.88;;;19.39;100.00
9249;BME280;4660;41.768;26.198;2023-04-22T09:33:04;100744.72;;;18.93;100.00
9249;BME280;4660;41.768;26.198;2023-04-22T09:35:38;100751.13;;;19.07;100.00
9249;BME280;4660;41.768;26.198;2023-04-22T09:38:06;100751.28;;;19.27;100.00
9249;BME280;4660;41.768;26.198;2023-04-22T09:40:33;100759.16;;;19.37;100.00
9249;BME280;4660;41.768;26.198;2023-04-22T09:43:02;100767.03;;;19.53;100.00
9249;BME280;4660;41.768;26.198;2023-04-22T09:47:56;100739.69;;;19.46;100.00
9249;BME280;4660;41.768;26.198;2023-04-22T09:50:27;100740.94;;;19.44;100.00
9249;BME280;4660;41.768;26.198;2023-04-22T09:53:15;100753.78;;;19.78;100.00
9249;BME280;4660;41.768;26.198;2023-04-22T09:55:44;100749.28;;;19.98;100.00
9249;BME280;4660;41.768;26.198;2023-04-22T09:58:12;100721.50;;;19.88;100.00
9249;BME280;4660;41.768;26.198;2023-04-22T10:00:47;100724.50;;;19.93;100.00
9249;BME280;4660;41.768;26.198;2023-04-22T10:03:15;100727.44;;;19.98;100.00
9249;BME280;4660;41.768;26.198;2023-04-22T10:05:41;100740.53;;;20.10;100.00
9249;BME280;4660;41.768;26.198;2023-04-22T10:08:08;100744.28;;;20.02;100.00
9249;BME280;4660;41.768;26.198;2023-04-22T10:10:36;100731.22;;;19.97;100.00
9249;BME280;4660;41.768;26.198;2023-04-22T10:13:03;100717.22;;;20.14;100.00
9249;BME280;4660;41.768;26.198;2023-04-22T10:15:34;100715.91;;;20.51;100.00
9249;BME280;4660;41.768;26.198;2023-04-22T10:18:02;100723.50;;;20.69;100.00
9249;BME280;4660;41.768;26.198;2023-04-22T10:20:30;100706.69;;;20.58;100.00
9249;BME280;4660;41.768;26.198;2023-04-22T10:22:57;100706.22;;;20.48;100.00
9249;BME280;4660;41.768;26.198;2023-04-22T10:25:28;100704.63;;;20.80;100.00
9249;BME280;4660;41.768;26.198;2023-04-22T10:28:00;100709.25;;;21.06;100.00
9249;BME280;4660;41.768;26.198;2023-04-22T10:30:28;100708.41;;;21.06;100.00
9249;BME280;4660;41.768;26.198;2023-04-22T10:32:55;100702.06;;;20.92;100.00
9249;BME280;4660;41.768;26.198;2023-04-22T10:35:26;100700.06;;;20.40;100.00
9249;BME280;4660;41.768;26.198;2023-04-22T10:37:53;100683.94;;;20.45;100.00
9249;BME280;4660;41.768;26.198;2023-04-22T10:40:19;100680.81;;;20.68;100.00
9249;BME280;4660;41.768;26.198;2023-04-22T10:42:51;100672.19;;;20.71;100.00
9249;BME280;4660;41.768;26.198;2023-04-22T10:45:17;100678.13;;;20.87;100.00
9249;BME280;4660;41.768;26.198;2023-04-22T10:47:44;100678.31;;;20.93;100.00
9249;BME280;4660;41.768;26.198;2023-04-22T10:52:48;100663.56;;;20.60;97.39
9249;BME280;4660;41.768;26.198;2023-04-22T10:55:14;100674.94;;;21.10;91.37
9249;BME280;4660;41.768;26.198;2023-04-22T10:57:46;100669.47;;;21.24;90.28
9249;BME280;4660;41.768;26.198;2023-04-22T11:00:18;100671.38;;;21.03;92.24
9249;BME280;4660;41.768;26.198;2023-04-22T11:02:44;100666.75;;;21.10;91.78
9249;BME280;4660;41.768;26.198;2023-04-22T11:05:22;100652.03;;;20.65;87.97
9249;BME280;4660;41.768;26.198;2023-04-22T11:07:50;100690.94;;;20.94;86.36
9249;BME280;4660;41.768;26.198;2023-04-22T11:10:38;100695.34;;;20.88;81.01
9249;BME280;4660;41.768;26.198;2023-04-22T11:13:13;100703.75;;;20.67;76.58
9249;BME280;4660;41.768;26.198;2023-04-22T11:15:46;100674.31;;;20.69;77.30
9249;BME280;4660;41.768;26.198;2023-04-22T11:18:20;100667.56;;;20.91;79.43
9249;BME280;4660;41.768;26.198;2023-04-22T11:20:47;100661.69;;;20.68;80.03
9249;BME280;4660;41.768;26.198;2023-04-22T11:23:22;100688.63;;;20.84;81.17
9249;BME280;4660;41.768;26.198;2023-04-22T11:25:55;100676.00;;;21.09;73.51
9249;BME280;4660;41.768;26.198;2023-04-22T11:28:21;100686.06;;;21.49;70.85
9249;BME280;4660;41.768;26.198;2023-04-22T11:30:48;100686.03;;;21.68;67.31
9249;BME280;4660;41.768;26.198;2023-04-22T11:33:14;100681.66;;;21.41;70.07
9249;BME280;4660;41.768;26.198;2023-04-22T11:35:41;100683.91;;;21.77;74.31
9249;BME280;4660;41.768;26.198;2023-04-22T11:38:13;100686.78;;;21.95;68.34
9249;BME280;4660;41.768;26.198;2023-04-22T11:40:41;100687.41;;;21.97;68.63
9249;BME280;4660;41.768;26.198;2023-04-22T11:43:10;100676.16;;;22.25;72.24
9249;BME280;4660;41.768;26.198;2023-04-22T11:45:38;100697.06;;;22.58;71.35
9249;BME280;4660;41.768;26.198;2023-04-22T11:48:06;100690.50;;;22.59;71.16
9249;BME280;4660;41.768;26.198;2023-04-22T11:51:06;100687.00;;;22.45;65.23
9249;BME280;4660;41.768;26.198;2023-04-22T11:53:34;100676.66;;;22.47;73.05
9249;BME280;4660;41.768;26.198;2023-04-22T11:56:12;100682.94;;;22.16;67.40
9249;BME280;4660;41.768;26.198;2023-04-22T12:01:13;100572.69;;;20.85;66.22
9249;BME280;4660;41.768;26.198;2023-04-22T12:03:40;100576.31;;;20.79;65.19
9249;BME280;4660;41.768;26.198;2023-04-22T12:06:06;100576.50;;;20.84;64.90
9249;BME280;4660;41.768;26.198;2023-04-22T12:08:37;100624.88;;;21.30;65.39
9249;BME280;4660;41.768;26.198;2023-04-22T12:11:11;100555.44;;;20.91;66.38
9249;BME280;4660;41.768;26.198;2023-04-22T12:16:04;100623.38;;;21.34;71.04
9249;BME280;4660;41.768;26.198;2023-04-22T12:18:36;100565.31;;;21.05;70.67
9249;BME280;4660;41.768;26.198;2023-04-22T12:23:45;100647.31;;;21.65;69.12
9249;BME280;4660;41.768;26.198;2023-04-22T12:26:11;100626.69;;;21.49;71.63
9249;BME280;4660;41.768;26.198;2023-04-22T12:28:37;100635.56;;;21.45;66.88
9249;BME280;4660;41.768;26.198;2023-04-22T12:31:07;100647.22;;;21.85;70.63
9249;BME280;4660;41.768;26.198;2023-04-22T12:33:47;100645.91;;;22.01;72.24
9249;BME280;4660;41.768;26.198;2023-04-22T12:36:22;100572.38;;;21.53;72.55
9249;BME280;4660;41.768;26.198;2023-04-22T12:38:49;100551.31;;;21.47;75.64
9249;BME280;4660;41.768;26.198;2023-04-22T12:41:16;100526.88;;;21.52;75.39
9249;BME280;4660;41.768;26.198;2023-04-22T12:43:52;100602.31;;;21.86;73.69
9249;BME280;4660;41.768;26.198;2023-04-22T12:46:39;100558.59;;;21.73;74.84
9249;BME280;4660;41.768;26.198;2023-04-22T12:49:28;100537.81;;;21.58;73.38
9249;BME280;4660;41.768;26.198;2023-04-22T12:51:55;100568.47;;;21.80;74.07
9249;BME280;4660;41.768;26.198;2023-04-22T12:54:21;100609.22;;;22.08;69.75
9249;BME280;4660;41.768;26.198;2023-04-22T12:56:47;100644.63;;;22.41;74.17
9249;BME280;4660;41.768;26.198;2023-04-22T12:59:13;100630.97;;;22.66;71.26
9249;BME280;4660;41.768;26.198;2023-04-22T13:01:40;100532.78;;;22.25;71.09
9249;BME280;4660;41.768;26.198;2023-04-22T13:04:09;100583.28;;;22.67;70.62
9249;BME280;4660;41.768;26.198;2023-04-22T13:06:35;100640.75;;;22.80;68.80